Time;durP1;ratioP1;P1;durP2;ratioP2;P2;SDS_P1;SDS_P2;PMS_P1;PMS_P2;Temp;Humidity;BMP_temperature;BMP_pressure;BME280_temperature;BME280_humidity;BME280_pressure;Samples;Min_cycle;Max_cycle;Signal;HPM_P1;HPM_P2
2022/01/21 00:01:08;;;;;;;5.10;1.83;;;;;;;7.36;50.16;102823.06;5086514;28;20083;-76
2022/01/21 00:03:36;;;;;;;8.55;2.10;;;;;;;7.35;50.08;102828.50;5067549;28;20044;-76
2022/01/21 00:06:06;;;;;;;5.85;1.88;;;;;;;7.33;50.19;102831.22;5067715;28;20063;-76
2022/01/21 00:08:37;;;;;;;4.40;2.03;;;;;;;7.33;50.38;102835.78;5087396;28;20105;-76
2022/01/21 00:11:07;;;;;;;7.68;1.90;;;;;;;7.30;50.18;102841.22;5083503;28;20670;-76
2022/01/21 00:13:35;;;;;;;5.85;1.90;;;;;;;7.29;50.15;102843.03;5089329;28;20048;-76
2022/01/21 00:16:07;;;;;;;4.72;1.75;;;;;;;7.29;50.18;102843.03;5067681;28;20051;-76
2022/01/21 00:18:37;;;;;;;6.82;1.70;;;;;;;7.28;50.50;102843.06;5088681;28;20055;-76
2022/01/21 00:32:08;;;;;;;7.32;1.77;;;;;;;7.23;50.59;102848.59;5083927;28;20055;-76
2022/01/21 00:34:35;;;;;;;6.30;2.10;;;;;;;7.23;50.51;102843.19;5087531;28;20082;-76
2022/01/21 00:37:02;;;;;;;8.15;1.98;;;;;;;7.23;50.61;102841.38;5066374;28;20093;-76
2022/01/21 00:39:31;;;;;;;6.40;1.67;;;;;;;7.22;50.67;102844.09;5086040;28;20086;-76
2022/01/21 00:44:25;;;;;;;6.05;1.95;;;;;;;7.22;50.59;102845.00;5082648;28;20164;-75
2022/01/21 00:46:52;;;;;;;7.10;2.03;;;;;;;7.22;50.77;102846.81;5082791;28;20052;-75
2022/01/21 00:49:18;;;;;;;8.57;2.42;;;;;;;7.21;50.57;102847.72;5088077;28;20487;-75
2022/01/21 00:51:45;;;;;;;5.88;1.70;;;;;;;7.21;50.74;102851.31;5088660;28;20097;-75
2022/01/21 00:54:12;;;;;;;4.93;1.70;;;;;;;7.22;50.56;102850.38;5065228;28;20079;-75
2022/01/21 00:56:39;;;;;;;8.73;2.25;;;;;;;7.21;50.70;102861.22;5086260;28;20076;-76
2022/01/21 00:59:05;;;;;;;7.60;2.10;;;;;;;7.20;50.63;102856.75;5087353;28;20055;-75
2022/01/21 01:01:32;;;;;;;5.15;1.65;;;;;;;7.20;50.95;102862.16;5088226;28;20208;-75
2022/01/21 01:04:00;;;;;;;4.55;2.10;;;;;;;7.20;50.65;102863.03;5088028;28;20512;-76
2022/01/21 01:06:26;;;;;;;5.30;2.00;;;;;;;7.19;50.73;102853.16;5087615;28;20040;-75
2022/01/21 01:08:54;;;;;;;6.88;1.80;;;;;;;7.19;50.46;102865.75;5088143;28;20090;-75
2022/01/21 01:22:08;;;;;;;6.95;2.15;;;;;;;7.13;50.93;102833.47;5092318;28;20044;-75
2022/01/21 01:27:37;;;;;;;7.07;2.22;;;;;;;7.11;50.88;102844.31;5083738;28;20450;-75
2022/01/21 01:30:11;;;;;;;6.55;2.45;;;;;;;7.13;51.08;102845.19;5063993;28;20087;-75
2022/01/21 01:32:39;;;;;;;5.82;1.85;;;;;;;7.10;51.04;102844.34;5086211;28;20044;-75
2022/01/21 01:35:07;;;;;;;6.68;2.13;;;;;;;7.11;51.14;102836.22;5076006;28;20117;-75
2022/01/21 01:50:57;;;;;;;5.55;1.80;;;;;;;7.06;51.06;102859.75;5087120;28;20118;-76
2022/01/21 01:53:41;;;;;;;5.35;1.90;;;;;;;7.08;51.22;102855.16;5085262;28;20040;-75
2022/01/21 01:56:10;;;;;;;5.45;2.13;;;;;;;7.06;51.03;102861.53;5082480;28;20105;-76
2022/01/21 01:58:39;;;;;;;6.68;2.00;;;;;;;7.06;51.09;102854.34;5091346;28;20040;-76
2022/01/21 02:01:06;;;;;;;5.60;2.10;;;;;;;7.06;50.99;102861.53;5090545;28;20056;-75
2022/01/21 02:03:34;;;;;;;4.53;1.85;;;;;;;7.06;50.87;102857.03;5091533;28;20497;-76
2022/01/21 02:06:01;;;;;;;10.25;2.05;;;;;;;7.06;51.09;102857.03;5089441;28;20052;-76
2022/01/21 02:08:29;;;;;;;4.57;1.75;;;;;;;7.08;51.12;102854.31;5098360;28;20081;-76
2022/01/21 02:10:56;;;;;;;6.13;2.00;;;;;;;7.06;51.16;102843.53;5088393;28;20120;-76
2022/01/21 02:13:29;;;;;;;5.00;2.00;;;;;;;7.08;51.11;102844.38;5069807;28;20089;-76
2022/01/21 02:16:14;;;;;;;6.13;2.13;;;;;;;7.09;51.31;102839.84;5082410;28;20251;-76
2022/01/21 02:21:31;;;;;;;6.43;1.70;;;;;;;7.07;51.32;102847.13;5085991;28;20144;-75
2022/01/21 02:24:02;;;;;;;6.20;1.88;;;;;;;7.08;51.15;102840.81;5087180;28;20051;-76
2022/01/21 02:26:29;;;;;;;4.18;1.88;;;;;;;7.06;51.21;102837.25;5076260;28;20495;-76
2022/01/21 02:28:58;;;;;;;4.90;2.00;;;;;;;7.06;51.25;102835.44;5073489;28;20128;-76
2022/01/21 02:31:25;;;;;;;5.72;1.70;;;;;;;7.07;51.36;102850.72;5071275;28;20047;-75
2022/01/21 02:33:52;;;;;;;5.40;1.55;;;;;;;7.06;50.99;102853.44;5070335;28;20128;-76
2022/01/21 02:36:19;;;;;;;5.20;1.70;;;;;;;7.06;51.15;102853.44;5089575;28;20056;-76
2022/01/21 02:38:46;;;;;;;6.88;2.20;;;;;;;7.06;51.00;102853.44;5090462;28;20086;-76
2022/01/21 02:41:13;;;;;;;6.43;1.83;;;;;;;7.06;51.41;102857.03;5089174;28;20105;-76
2022/01/21 02:43:40;;;;;;;5.57;1.58;;;;;;;7.05;51.39;102863.34;5087691;28;20114;-76
2022/01/21 02:46:09;;;;;;;5.05;1.80;;;;;;;7.05;51.26;102860.66;5083103;28;20060;-75
2022/01/21 02:48:38;;;;;;;5.20;1.83;;;;;;;7.06;51.32;102861.53;5072029;28;20048;-76
2022/01/21 02:51:07;;;;;;;8.43;2.10;;;;;;;7.06;51.45;102864.25;5088924;28;20084;-76
2022/01/21 02:56:16;;;;;;;4.15;1.80;;;;;;;7.07;51.35;102871.44;5083587;28;20056;-76
2022/01/21 02:58:45;;;;;;;6.43;1.83;;;;;;;7.07;51.41;102864.22;5073017;28;20076;-75
2022/01/21 03:01:12;;;;;;;4.82;1.77;;;;;;;7.08;51.29;102878.63;5090347;28;20329;-75
2022/01/21 03:03:41;;;;;;;5.72;1.90;;;;;;;7.08;51.30;102879.47;5087579;28;20062;-76
2022/01/21 03:06:08;;;;;;;5.97;1.92;;;;;;;7.09;51.01;102877.66;5089227;28;20479;-76
2022/01/21 03:08:34;;;;;;;6.07;2.17;;;;;;;7.08;51.38;102886.72;5090417;28;20577;-75
2022/01/21 03:11:01;;;;;;;5.80;2.03;;;;;;;7.09;51.57;102893.88;5088269;28;20554;-76
2022/01/21 03:13:28;;;;;;;6.40;2.10;;;;;;;7.09;51.41;102896.56;5073564;28;20072;-76
2022/01/21 03:15:54;;;;;;;6.00;1.83;;;;;;;7.08;51.58;102881.31;5065566;28;20095;-75
2022/01/21 03:18:21;;;;;;;5.03;1.70;;;;;;;7.09;51.42;102892.06;5079552;28;20079;-76
2022/01/21 03:20:47;;;;;;;5.35;1.73;;;;;;;7.09;51.45;102886.66;5085148;28;20113;-76
2022/01/21 03:23:17;;;;;;;6.47;1.85;;;;;;;7.09;51.63;102885.78;5090784;28;20467;-75
2022/01/21 03:25:46;;;;;;;8.73;1.80;;;;;;;7.12;51.62;102881.22;5069873;28;20103;-76
2022/01/21 03:28:14;;;;;;;5.90;1.63;;;;;;;7.11;51.51;102879.44;5089005;28;20564;-76
2022/01/21 03:30:42;;;;;;;7.05;2.22;;;;;;;7.11;51.61;102868.63;5083943;28;20407;-76
2022/01/21 03:33:09;;;;;;;5.93;1.65;;;;;;;7.13;51.79;102869.50;5083699;28;20040;-75
2022/01/21 03:35:36;;;;;;;6.07;1.67;;;;;;;7.13;51.42;102865.91;5082507;28;20062;-76
2022/01/21 03:38:04;;;;;;;5.28;1.80;;;;;;;7.13;51.58;102872.19;5081273;28;20138;-76
2022/01/21 03:40:31;;;;;;;5.95;1.55;;;;;;;7.13;51.49;102868.59;5088635;28;20507;-75
2022/01/21 03:42:58;;;;;;;6.28;1.75;;;;;;;7.13;51.52;102863.19;5090074;28;20083;-75
2022/01/21 03:45:24;;;;;;;4.15;1.67;;;;;;;7.14;51.57;102864.97;5068721;28;20090;-75
2022/01/21 03:47:52;;;;;;;6.63;1.65;;;;;;;7.14;51.24;102864.97;5090374;28;20418;-75
2022/01/21 03:50:23;;;;;;;6.65;2.00;;;;;;;7.13;51.35;102864.09;5070993;28;20120;-76
2022/01/21 03:52:51;;;;;;;6.00;1.80;;;;;;;7.13;51.42;102872.19;5090470;28;20464;-75
2022/01/21 03:55:18;;;;;;;5.63;1.73;;;;;;;7.13;51.47;102869.50;5069257;28;20833;-75
2022/01/21 03:57:45;;;;;;;5.25;1.50;;;;;;;7.11;51.74;102868.63;5089465;28;20089;-75
2022/01/21 04:00:16;;;;;;;5.97;2.05;;;;;;;7.13;51.57;102874.00;5088633;28;20068;-75
2022/01/21 04:02:42;;;;;;;4.00;1.30;;;;;;;7.11;51.50;102878.53;5071634;28;20491;-76
2022/01/21 04:05:09;;;;;;;2.85;1.33;;;;;;;7.09;51.39;102873.16;5084739;28;20052;-75
2022/01/21 04:07:36;;;;;;;4.20;1.40;;;;;;;7.09;51.45;102883.06;5090187;28;20135;-76
2022/01/21 04:10:05;;;;;;;5.22;1.42;;;;;;;7.08;51.47;102884.03;5088292;28;20135;-75
2022/01/21 04:12:32;;;;;;;5.35;1.70;;;;;;;7.07;51.60;102884.94;5091729;28;20533;-76
2022/01/21 04:14:59;;;;;;;5.03;1.48;;;;;;;7.07;51.45;102888.53;5088682;28;20052;-75
2022/01/21 04:17:27;;;;;;;5.75;2.20;;;;;;;7.06;51.47;102889.44;5082569;28;20113;-76
2022/01/21 04:19:54;;;;;;;4.72;1.60;;;;;;;7.06;51.62;102889.44;5081786;28;20143;-75
2022/01/21 04:22:21;;;;;;;3.95;1.42;;;;;;;7.06;51.63;102880.44;5089852;28;20047;-75
2022/01/21 04:24:49;;;;;;;6.00;1.85;;;;;;;7.05;51.80;102882.25;5069832;28;20062;-76
2022/01/21 04:27:17;;;;;;;5.78;1.85;;;;;;;7.07;51.59;102884.94;5089041;28;20130;-76
2022/01/21 04:29:45;;;;;;;6.07;2.10;;;;;;;7.05;51.62;102876.84;5088580;28;20056;-75
2022/01/21 04:32:11;;;;;;;6.75;2.10;;;;;;;7.05;51.56;102867.88;5089224;28;20093;-76
2022/01/21 04:34:38;;;;;;;4.97;1.80;;;;;;;7.05;51.62;102860.66;5088234;28;20063;-76
2022/01/21 04:37:09;;;;;;;4.90;1.70;;;;;;;7.06;51.72;102864.25;5088504;28;20544;-75
2022/01/21 04:39:42;;;;;;;8.75;2.20;;;;;;;7.05;51.55;102867.88;5075445;28;20555;-76
2022/01/21 04:47:39;;;;;;;8.48;1.75;;;;;;;7.03;51.93;102864.28;5082827;28;20040;-76
2022/01/21 04:50:12;;;;;;;5.22;1.65;;;;;;;7.04;51.74;102860.69;5088703;28;20566;-75
2022/01/21 04:52:40;;;;;;;5.93;1.92;;;;;;;7.02;51.95;102866.09;5082557;28;20040;-75
2022/01/21 04:55:08;;;;;;;6.20;1.90;;;;;;;7.03;51.83;102869.69;5087312;28;20440;-75
2022/01/21 04:57:35;;;;;;;3.53;1.58;;;;;;;7.02;51.96;102874.22;5088754;28;20051;-76
2022/01/21 05:00:04;;;;;;;5.45;1.92;;;;;;;7.03;51.66;102872.41;5088066;28;20048;-76
2022/01/21 05:02:32;;;;;;;6.85;2.05;;;;;;;7.03;51.39;102877.78;5067781;28;20157;-75
2022/01/21 05:04:59;;;;;;;6.45;1.70;;;;;;;7.03;51.86;102873.28;5069050;28;20554;-75
2022/01/21 05:07:27;;;;;;;4.03;1.60;;;;;;;7.02;51.65;102876.91;5088101;28;20055;-75
2022/01/21 05:09:54;;;;;;;5.65;1.90;;;;;;;7.02;52.00;102873.31;5085115;28;20051;-75
2022/01/21 05:12:23;;;;;;;4.30;1.63;;;;;;;7.02;51.68;102879.59;5087223;28;20481;-75
2022/01/21 05:17:23;;;;;;;7.75;1.70;;;;;;;6.99;51.62;102882.38;5079096;28;20060;-75
2022/01/21 05:19:50;;;;;;;6.80;1.58;;;;;;;7.01;51.73;102887.72;5087332;28;20056;-75
2022/01/21 05:22:16;;;;;;;6.00;1.83;;;;;;;7.02;51.83;102876.00;5084816;28;20090;-75
2022/01/21 05:24:43;;;;;;;6.15;1.90;;;;;;;7.01;51.65;102880.53;5078725;28;20072;-74
2022/01/21 05:27:12;;;;;;;4.38;2.08;;;;;;;7.01;51.74;102874.22;5089114;28;20097;-75
2022/01/21 05:29:39;;;;;;;4.53;1.85;;;;;;;7.02;51.83;102876.00;5094601;28;20044;-75
2022/01/21 05:32:07;;;;;;;6.22;2.20;;;;;;;7.00;51.60;102876.03;5092104;28;20090;-76
2022/01/21 05:34:34;;;;;;;4.18;1.70;;;;;;;7.01;51.54;102876.94;5081072;28;20572;-76
2022/01/21 05:37:06;;;;;;;5.57;1.80;;;;;;;6.98;51.82;102890.50;5076411;28;20044;-76
2022/01/21 05:39:32;;;;;;;5.90;1.92;;;;;;;7.00;51.69;102897.66;5075807;28;20131;-77
2022/01/21 05:42:00;;;;;;;6.60;1.90;;;;;;;7.00;51.59;102903.03;5092325;28;20341;-76
2022/01/21 05:47:00;;;;;;;5.75;2.22;;;;;;;6.99;51.84;102898.59;5080543;28;20339;-75
2022/01/21 05:49:30;;;;;;;3.97;1.92;;;;;;;7.00;52.15;102891.38;5088080;28;20836;-76
2022/01/21 05:52:07;;;;;;;5.07;2.20;;;;;;;6.99;51.88;102895.88;5072829;28;20093;-76
2022/01/21 05:54:34;;;;;;;6.18;1.90;;;;;;;6.97;51.84;102894.13;5069336;28;20135;-76
2022/01/21 05:57:05;;;;;;;6.68;1.85;;;;;;;6.98;51.85;102898.63;5086895;28;20051;-76
2022/01/21 05:59:32;;;;;;;6.20;1.90;;;;;;;6.98;51.77;102899.50;5085128;28;20045;-76
2022/01/21 06:01:59;;;;;;;5.85;2.00;;;;;;;6.98;51.82;102904.03;5091848;28;20498;-76
2022/01/21 06:04:26;;;;;;;6.78;2.22;;;;;;;6.98;52.01;102898.63;5079684;28;20048;-76
2022/01/21 06:06:52;;;;;;;6.63;2.22;;;;;;;6.99;51.92;102903.09;5072014;28;20139;-76
2022/01/21 06:09:19;;;;;;;6.43;1.88;;;;;;;6.98;51.83;102898.63;5087510;28;20064;-76
2022/01/21 06:11:50;;;;;;;5.72;2.40;;;;;;;6.99;52.02;102908.50;5090576;28;20079;-75
2022/01/21 06:14:17;;;;;;;9.13;2.22;;;;;;;6.98;51.67;102902.22;5083847;28;20411;-74
2022/01/21 06:16:44;;;;;;;6.35;2.15;;;;;;;6.98;52.07;102899.50;5088315;28;20143;-74
2022/01/21 06:19:11;;;;;;;7.78;2.10;;;;;;;6.99;51.97;102906.69;5090798;28;20091;-75
2022/01/21 06:21:37;;;;;;;5.78;2.10;;;;;;;6.98;52.28;102899.50;5090420;28;20055;-75
2022/01/21 06:24:04;;;;;;;6.60;2.38;;;;;;;6.99;52.14;102911.19;5085607;28;20458;-74
2022/01/21 06:26:31;;;;;;;5.93;2.25;;;;;;;6.98;51.96;102909.41;5090282;28;20050;-74
2022/01/21 06:28:57;;;;;;;6.45;2.55;;;;;;;6.98;52.05;102909.41;5074941;28;20060;-75
2022/01/21 06:31:24;;;;;;;5.95;2.20;;;;;;;6.98;51.94;102904.03;5066809;28;20056;-74
2022/01/21 06:33:51;;;;;;;5.72;2.50;;;;;;;6.98;52.03;102914.81;5075892;28;20097;-75
2022/01/21 06:36:17;;;;;;;5.07;2.05;;;;;;;6.97;51.90;102923.84;5090402;28;20051;-75
2022/01/21 06:38:44;;;;;;;5.40;2.20;;;;;;;6.97;52.21;102926.53;5068197;28;20541;-75
2022/01/21 06:41:10;;;;;;;7.30;2.28;;;;;;;6.97;52.15;102919.31;5090088;28;20059;-74
2022/01/21 06:43:38;;;;;;;5.40;1.92;;;;;;;6.98;52.25;102926.50;5082669;28;20133;-74
2022/01/21 06:46:04;;;;;;;7.05;2.75;;;;;;;6.98;52.14;102931.03;5085602;28;20044;-74
2022/01/21 06:48:31;;;;;;;6.20;2.75;;;;;;;6.98;52.07;102939.13;5073872;28;20048;-75
2022/01/21 06:50:57;;;;;;;8.32;2.13;;;;;;;6.98;51.87;102948.13;5090334;28;20064;-74
2022/01/21 06:53:24;;;;;;;5.70;2.40;;;;;;;6.98;52.03;102944.53;5069809;28;20096;-74
2022/01/21 06:55:51;;;;;;;5.03;2.20;;;;;;;6.96;52.00;102952.66;5078765;28;20212;-75
2022/01/21 06:58:17;;;;;;;7.40;2.85;;;;;;;6.97;52.07;102950.84;5086721;28;20052;-74
2022/01/21 07:00:44;;;;;;;5.50;2.40;;;;;;;6.95;52.17;102945.47;5089475;28;20060;-74
2022/01/21 07:03:11;;;;;;;7.00;2.78;;;;;;;6.96;51.91;102952.66;5071837;28;20040;-74
2022/01/21 07:05:38;;;;;;;7.75;2.40;;;;;;;6.95;51.89;102945.47;5082885;28;20052;-75
2022/01/21 07:08:05;;;;;;;8.15;2.60;;;;;;;6.95;52.18;102948.16;5083371;28;20079;-75
2022/01/21 07:10:31;;;;;;;6.47;2.80;;;;;;;6.94;52.01;102948.19;5091749;28;20113;-74
2022/01/21 07:13:03;;;;;;;9.13;2.60;;;;;;;6.93;51.76;102958.09;5090606;28;20056;-74
2022/01/21 07:15:29;;;;;;;4.70;2.20;;;;;;;6.93;51.98;102952.69;5082608;28;20097;-76
2022/01/21 07:17:56;;;;;;;5.57;2.55;;;;;;;6.93;51.68;102947.28;5064659;28;20051;-76
2022/01/21 07:20:23;;;;;;;5.30;2.42;;;;;;;6.93;52.12;102951.81;5088899;28;20435;-74
2022/01/21 07:22:49;;;;;;;5.53;2.60;;;;;;;6.92;52.23;102953.59;5089051;28;20391;-74
2022/01/21 07:25:17;;;;;;;6.60;2.50;;;;;;;6.91;51.77;102949.16;5087294;28;20129;-74
2022/01/21 07:27:49;;;;;;;5.75;2.40;;;;;;;6.89;51.97;102948.28;5088062;28;20070;-74
2022/01/21 07:30:16;;;;;;;6.38;2.40;;;;;;;6.87;51.83;102940.22;5087385;28;20060;-75
2022/01/21 07:32:43;;;;;;;6.35;2.38;;;;;;;6.88;51.72;102941.09;5085632;28;20402;-75
2022/01/21 07:35:11;;;;;;;5.53;2.33;;;;;;;6.86;52.12;102956.44;5088031;28;20036;-75
2022/01/21 07:37:59;;;;;;;5.32;2.40;;;;;;;6.84;51.79;102956.44;5082771;28;20048;-75
2022/01/21 07:40:26;;;;;;;6.88;2.72;;;;;;;6.84;51.77;102961.84;5081436;28;20056;-74
2022/01/21 07:42:53;;;;;;;7.38;2.50;;;;;;;6.84;51.98;102960.94;5091668;28;20060;-74
2022/01/21 07:45:19;;;;;;;6.68;2.58;;;;;;;6.81;51.84;102963.72;5087357;28;20072;-75
2022/01/21 07:47:46;;;;;;;5.68;2.25;;;;;;;6.79;52.00;102977.25;5089578;28;20127;-74
2022/01/21 07:50:13;;;;;;;5.03;2.00;;;;;;;6.80;52.08;102980.84;5088947;28;20115;-75
2022/01/21 07:52:40;;;;;;;6.53;2.58;;;;;;;6.80;51.89;102981.72;5090362;28;20132;-74
2022/01/21 07:55:07;;;;;;;5.20;2.42;;;;;;;6.78;52.08;102988.97;5088158;28;20044;-75
2022/01/21 07:57:34;;;;;;;5.25;2.20;;;;;;;6.80;52.15;102986.25;5074751;28;20048;-74
2022/01/21 08:00:01;;;;;;;5.78;2.50;;;;;;;6.79;52.07;102988.03;5068751;28;20060;-76
2022/01/21 08:02:29;;;;;;;7.07;2.58;;;;;;;6.79;52.18;102989.84;5087528;28;20043;-75
2022/01/21 08:04:57;;;;;;;5.80;2.30;;;;;;;6.79;52.20;102981.75;5085679;28;20139;-75
2022/01/21 08:07:23;;;;;;;7.22;2.45;;;;;;;6.79;52.25;102988.03;5071837;28;20052;-76
2022/01/21 08:09:50;;;;;;;10.82;3.97;;;;;;;6.81;52.24;102988.03;5088105;28;20052;-74
2022/01/21 08:12:18;;;;;;;5.72;2.30;;;;;;;6.80;52.38;102988.94;5088889;28;20056;-75
2022/01/21 08:14:45;;;;;;;5.32;2.38;;;;;;;6.81;52.16;102994.31;5086846;28;20487;-74
2022/01/21 08:17:12;;;;;;;4.93;2.13;;;;;;;6.83;52.11;102991.59;5085116;28;20048;-75
2022/01/21 08:19:39;;;;;;;5.63;2.33;;;;;;;6.81;52.24;102975.44;5083549;28;20917;-75
2022/01/21 08:22:06;;;;;;;4.72;2.05;;;;;;;6.80;52.13;102973.63;5089297;28;20052;-74
2022/01/21 08:24:32;;;;;;;6.63;2.58;;;;;;;6.82;52.18;102987.13;5088340;28;20060;-75
2022/01/21 08:26:59;;;;;;;6.10;2.47;;;;;;;6.82;52.26;102984.41;5087893;28;20135;-76
2022/01/21 08:29:26;;;;;;;7.72;2.40;;;;;;;6.83;52.34;102983.50;5089368;28;20380;-76
2022/01/21 08:31:54;;;;;;;5.90;2.55;;;;;;;6.84;52.28;102986.16;5090893;28;20517;-76
2022/01/21 08:34:21;;;;;;;8.55;3.13;;;;;;;6.83;52.52;102988.91;5086611;28;20059;-74
2022/01/21 08:36:49;;;;;;;4.88;2.33;;;;;;;6.85;52.71;102976.25;5070541;28;20075;-75
2022/01/21 08:39:16;;;;;;;4.80;2.47;;;;;;;6.85;52.42;102979.84;5080735;28;20044;-75
2022/01/21 08:41:43;;;;;;;5.97;2.15;;;;;;;6.86;52.40;102981.63;5069202;28;20101;-75
2022/01/21 08:44:09;;;;;;;6.03;2.20;;;;;;;6.88;52.61;102984.28;5087619;28;20044;-75
2022/01/21 08:46:36;;;;;;;5.70;2.50;;;;;;;6.88;52.62;102982.50;5087730;28;20549;-75
2022/01/21 08:49:21;;;;;;;6.82;2.00;;;;;;;6.91;52.37;102994.16;5073195;28;20102;-75
2022/01/21 08:51:53;;;;;;;6.18;2.22;;;;;;;6.91;52.55;102986.06;5086346;28;20117;-74
2022/01/21 08:54:21;;;;;;;6.68;2.20;;;;;;;6.91;52.52;102996.88;5082052;28;20129;-76
2022/01/21 08:56:49;;;;;;;7.05;2.50;;;;;;;6.94;52.92;102988.69;5082227;28;20572;-76
2022/01/21 08:59:17;;;;;;;5.60;2.38;;;;;;;6.95;52.68;102985.97;5087156;28;20094;-74
2022/01/21 09:01:45;;;;;;;4.63;2.40;;;;;;;6.97;52.66;102999.44;5085151;28;20121;-75
2022/01/21 09:04:12;;;;;;;5.63;2.50;;;;;;;6.97;52.61;102992.25;5092130;28;20127;-75
2022/01/21 09:06:39;;;;;;;5.32;2.22;;;;;;;6.99;52.56;102994.91;5075127;28;20079;-75
2022/01/21 09:09:05;;;;;;;4.90;2.58;;;;;;;7.01;52.63;102990.34;5093560;28;20044;-75
2022/01/21 09:11:32;;;;;;;5.82;2.42;;;;;;;7.02;52.66;102993.03;5074099;28;20052;-74
2022/01/21 09:14:00;;;;;;;4.88;2.20;;;;;;;7.05;52.55;102989.41;5092046;28;20135;-75
2022/01/21 09:16:27;;;;;;;4.22;2.28;;;;;;;7.05;52.54;102993.00;5083421;28;20040;-76
2022/01/21 09:18:57;;;;;;;4.30;2.08;;;;;;;7.06;52.53;102994.78;5072364;28;20059;-76
2022/01/21 09:21:32;;;;;;;4.90;2.22;;;;;;;7.09;52.70;102988.41;5088760;28;20051;-75
2022/01/21 09:23:59;;;;;;;4.47;2.03;;;;;;;7.09;52.40;102991.09;5092625;28;20140;-75
2022/01/21 09:26:28;;;;;;;4.30;2.10;;;;;;;7.11;52.55;102997.38;5089897;28;20094;-75
2022/01/21 09:28:56;;;;;;;4.70;2.25;;;;;;;7.13;52.75;102996.44;5089526;28;20095;-75
2022/01/21 09:31:23;;;;;;;7.35;3.15;;;;;;;7.14;52.75;103003.63;5090125;28;20560;-76
2022/01/21 09:34:10;;;;;;;6.25;2.88;;;;;;;7.14;52.82;103000.94;5087975;28;20055;-76
2022/01/21 09:36:37;;;;;;;6.18;2.55;;;;;;;7.17;52.76;103008.06;5091227;28;20044;-75
2022/01/21 09:39:06;;;;;;;6.55;2.97;;;;;;;7.21;53.00;102996.31;5091404;28;20492;-76
2022/01/21 09:41:33;;;;;;;6.07;2.67;;;;;;;7.20;52.98;102998.09;5091117;28;20068;-75
2022/01/21 09:44:02;;;;;;;5.93;2.80;;;;;;;7.23;53.00;103003.47;5080209;28;20044;-75
2022/01/21 09:46:36;;;;;;;4.70;2.20;;;;;;;7.26;52.83;102999.78;5087780;28;20406;-76
2022/01/21 09:49:25;;;;;;;6.55;2.53;;;;;;;7.30;52.87;103006.03;5090002;28;20088;-76
2022/01/21 09:51:54;;;;;;;4.50;2.30;;;;;;;7.32;52.66;102999.69;5086821;28;20055;-76
2022/01/21 09:54:23;;;;;;;4.75;2.25;;;;;;;7.36;52.93;102995.09;5091077;28;20177;-76
2022/01/21 09:56:53;;;;;;;7.20;2.33;;;;;;;7.39;52.85;102998.66;5089953;28;20300;-76
2022/01/21 09:59:22;;;;;;;5.97;2.40;;;;;;;7.43;52.87;102994.06;5072995;28;20118;-76
2022/01/21 10:01:50;;;;;;;5.85;3.00;;;;;;;7.46;52.82;103000.31;5092030;28;20424;-76
2022/01/21 10:04:19;;;;;;;5.15;2.53;;;;;;;7.50;52.73;102993.91;5085192;28;20052;-76
2022/01/21 10:06:47;;;;;;;5.25;2.38;;;;;;;7.53;52.76;102995.66;5082153;28;20044;-76
2022/01/21 10:09:15;;;;;;;5.85;2.45;;;;;;;7.56;52.82;102991.09;5090951;28;20403;-76
2022/01/21 10:11:48;;;;;;;7.40;2.65;;;;;;;7.58;52.85;103000.06;5092433;28;20063;-76
2022/01/21 10:14:26;;;;;;;7.95;2.78;;;;;;;7.63;52.84;103008.09;5085031;28;20102;-76
2022/01/21 10:16:54;;;;;;;4.78;2.17;;;;;;;7.64;52.94;103008.06;5063636;28;20048;-75
2022/01/21 10:19:27;;;;;;;4.82;2.05;;;;;;;7.70;52.88;103015.16;5085037;28;20044;-75
2022/01/21 10:22:09;;;;;;;5.22;2.20;;;;;;;7.74;52.89;103016.84;5087293;28;20483;-75
2022/01/21 10:24:51;;;;;;;7.25;2.58;;;;;;;7.79;52.88;103023.06;5088789;28;20074;-75
2022/01/21 10:27:24;;;;;;;6.53;2.45;;;;;;;7.83;53.01;103024.78;5084386;28;20040;-75
2022/01/21 10:29:52;;;;;;;4.55;2.22;;;;;;;7.86;53.05;103023.81;5088614;28;20056;-75
2022/01/21 10:32:33;;;;;;;5.30;2.03;;;;;;;7.91;52.62;103020.09;5090102;28;20066;-75
2022/01/21 10:35:29;;;;;;;5.85;2.03;;;;;;;7.94;52.75;103019.16;5088129;28;20052;-75
2022/01/21 10:38:13;;;;;;;5.35;2.10;;;;;;;7.95;52.89;103024.53;5073864;28;20052;-75
2022/01/21 10:40:39;;;;;;;;;;;;;;;7.80;52.98;103019.44;5068746;28;20357;-75
2022/01/21 10:43:18;;;;;;;4.30;1.88;;;;;;;8.01;52.91;103027.09;5066073;28;19979;-76
2022/01/21 10:45:57;;;;;;;6.45;1.80;;;;;;;8.06;52.71;103024.31;5085572;28;20072;-76
2022/01/21 10:48:27;;;;;;;5.72;2.00;;;;;;;8.09;52.72;103018.81;5087933;28;20052;-76
2022/01/21 10:51:20;;;;;;;4.82;1.80;;;;;;;8.14;52.63;103014.22;5089530;28;20048;-76
2022/01/21 10:53:47;;;;;;;4.73;2.20;;;;;;;8.13;53.01;103020.53;5091863;28;20123;-76
2022/01/21 10:56:16;;;;;;;7.47;1.95;;;;;;;8.20;52.77;103010.47;5070344;28;20176;-76
2022/01/21 10:58:45;;;;;;;2.92;1.70;;;;;;;8.24;52.81;102999.53;5090731;28;20048;-76
2022/01/21 11:01:18;;;;;;;4.30;2.03;;;;;;;8.27;52.88;102998.56;5089339;28;20059;-77
2022/01/21 11:03:57;;;;;;;2.67;1.45;;;;;;;8.32;52.61;102999.38;5089956;28;20067;-77
2022/01/21 11:06:27;;;;;;;3.22;1.58;;;;;;;8.34;52.67;103001.13;5076863;28;20052;-78
2022/01/21 11:09:17;;;;;;;5.72;2.10;;;;;;;8.39;52.47;102995.63;5081557;28;20080;-79
2022/01/21 11:11:46;;;;;;;6.32;2.08;;;;;;;8.40;52.54;102997.38;5073779;28;20124;-79
2022/01/21 11:14:19;;;;;;;6.47;2.15;;;;;;;8.46;52.47;102999.06;5082067;28;20056;-79
2022/01/21 11:16:48;;;;;;;5.85;1.70;;;;;;;8.47;52.69;103006.28;5084920;28;20526;-79
2022/01/21 11:19:35;;;;;;;4.53;2.40;;;;;;;8.48;52.63;103002.63;5084079;28;20055;-78
2022/01/21 11:22:04;;;;;;;5.45;1.90;;;;;;;8.54;52.43;102999.78;5089304;28;20058;-78
2022/01/21 11:24:32;;;;;;;5.03;1.83;;;;;;;8.54;52.48;102997.97;5073483;28;20048;-78
2022/01/21 11:27:13;;;;;;;4.85;1.67;;;;;;;8.60;52.30;102989.69;5091796;28;20170;-77
2022/01/21 11:29:44;;;;;;;4.55;1.95;;;;;;;8.61;52.58;102977.03;5082681;28;20092;-78
2022/01/21 11:32:12;;;;;;;5.13;1.83;;;;;;;8.63;52.83;102975.19;5085048;28;20098;-76
2022/01/21 11:34:39;;;;;;;4.43;1.55;;;;;;;8.66;52.57;102975.09;5070486;28;20467;-76
2022/01/21 11:37:07;;;;;;;5.45;1.98;;;;;;;8.70;52.62;102974.09;5061218;28;20496;-75
2022/01/21 11:39:35;;;;;;;5.10;2.33;;;;;;;8.71;52.60;102976.78;5084078;28;20576;-76
2022/01/21 11:42:05;;;;;;;6.05;1.80;;;;;;;8.75;52.26;102977.56;5081488;28;20494;-76
2022/01/21 11:44:36;;;;;;;4.88;2.22;;;;;;;8.75;52.87;102964.91;5087706;28;20055;-76
2022/01/21 11:49:41;;;;;;;4.90;2.08;;;;;;;8.82;52.26;102959.34;5088299;28;20059;-76
2022/01/21 11:52:20;;;;;;;5.40;1.92;;;;;;;8.87;52.04;102960.13;5089665;28;20518;-76
2022/01/21 11:54:49;;;;;;;5.30;2.10;;;;;;;8.86;52.35;102952.94;5086209;28;20060;-76
2022/01/21 11:57:25;;;;;;;4.32;2.10;;;;;;;8.88;52.52;102951.97;5084769;28;20072;-76
2022/01/21 11:59:59;;;;;;;5.13;2.40;;;;;;;8.89;52.31;102958.28;5068516;28;20083;-76
2022/01/21 12:02:29;;;;;;;5.40;2.25;;;;;;;8.92;52.38;102945.53;5069483;28;20113;-76
2022/01/21 12:05:00;;;;;;;6.32;2.20;;;;;;;8.93;52.24;102941.00;5086156;28;20043;-76
2022/01/21 12:07:44;;;;;;;5.28;2.10;;;;;;;8.95;52.08;102948.16;5081647;28;20122;-75
2022/01/21 12:10:12;;;;;;;4.63;2.17;;;;;;;8.94;52.27;102938.25;5077922;28;20047;-75
2022/01/21 12:13:08;;;;;;;6.32;2.30;;;;;;;8.97;52.21;102940.00;5090980;28;20071;-76
2022/01/21 12:15:45;;;;;;;6.75;2.25;;;;;;;8.94;52.40;102937.34;5082155;28;20097;-76
2022/01/21 12:21:04;;;;;;;6.60;2.00;;;;;;;8.98;52.34;102947.16;5086951;28;20060;-76
2022/01/21 12:23:52;;;;;;;5.88;2.20;;;;;;;8.98;52.31;102941.75;5084805;28;20415;-76
2022/01/21 12:26:26;;;;;;;5.80;2.30;;;;;;;9.01;52.18;102945.28;5069216;28;20093;-77
2022/01/21 12:28:59;;;;;;;4.68;2.50;;;;;;;9.00;52.44;102943.50;5071436;28;20117;-76
2022/01/21 12:31:40;;;;;;;7.43;3.55;;;;;;;9.07;52.13;102947.81;5083139;28;20044;-76
2022/01/21 12:34:14;;;;;;;8.60;3.50;;;;;;;9.06;52.23;102934.28;5082226;28;21633;-76
2022/01/21 12:36:53;;;;;;;7.32;2.80;;;;;;;9.11;52.35;102924.25;5088125;28;20435;-77
2022/01/21 12:39:41;;;;;;;6.30;2.45;;;;;;;9.10;52.27;102925.16;5087256;28;20052;-76
2022/01/21 12:42:19;;;;;;;5.25;2.47;;;;;;;9.13;52.04;102928.69;5088904;28;20047;-76
2022/01/21 12:44:55;;;;;;;5.00;2.20;;;;;;;9.13;52.19;102930.50;5067934;28;20414;-76
2022/01/21 12:47:41;;;;;;;5.57;2.10;;;;;;;9.15;51.98;102928.63;5083899;28;20044;-76